sensor_id;sensor_type;location;lat;lon;timestamp;P1;durP1;ratioP1;P2;durP2;ratioP2
13311;SDS011;34033;48.672;9.376;2023-08-07T00:02:22;1.03;;;0.67;;
13311;SDS011;34033;48.672;9.376;2023-08-07T00:04:47;0.57;;;0.57;;
13311;SDS011;34033;48.672;9.376;2023-08-07T00:07:13;1.40;;;0.70;;
13311;SDS011;34033;48.672;9.376;2023-08-07T00:09:38;0.60;;;0.60;;
13311;SDS011;34033;48.672;9.376;2023-08-07T00:12:04;2.20;;;1.17;;
13311;SDS011;34033;48.672;9.376;2023-08-07T00:14:29;0.80;;;0.63;;
13311;SDS011;34033;48.672;9.376;2023-08-07T00:16:55;0.60;;;0.60;;
13311;SDS011;34033;48.672;9.376;2023-08-07T00:19:20;1.27;;;0.90;;
13311;SDS011;34033;48.672;9.376;2023-08-07T00:21:45;0.70;;;0.70;;
13311;SDS011;34033;48.672;9.376;2023-08-07T00:24:11;0.70;;;0.60;;
13311;SDS011;34033;48.672;9.376;2023-08-07T00:26:36;0.77;;;0.60;;
13311;SDS011;34033;48.672;9.376;2023-08-07T00:29:01;1.07;;;0.80;;
13311;SDS011;34033;48.672;9.376;2023-08-07T00:31:27;1.40;;;0.67;;
13311;SDS011;34033;48.672;9.376;2023-08-07T00:33:56;1.10;;;0.80;;
13311;SDS011;34033;48.672;9.376;2023-08-07T00:36:21;0.70;;;0.70;;
13311;SDS011;34033;48.672;9.376;2023-08-07T00:38:47;0.87;;;0.87;;
13311;SDS011;34033;48.672;9.376;2023-08-07T00:41:12;0.60;;;0.60;;
13311;SDS011;34033;48.672;9.376;2023-08-07T00:43:37;0.60;;;0.60;;
13311;SDS011;34033;48.672;9.376;2023-08-07T00:46:02;0.53;;;0.53;;
13311;SDS011;34033;48.672;9.376;2023-08-07T00:48:28;0.83;;;0.70;;
13311;SDS011;34033;48.672;9.376;2023-08-07T00:50:54;0.70;;;0.70;;
13311;SDS011;34033;48.672;9.376;2023-08-07T00:53:21;0.87;;;0.87;;
13311;SDS011;34033;48.672;9.376;2023-08-07T00:55:47;0.63;;;0.60;;
13311;SDS011;34033;48.672;9.376;2023-08-07T00:58:13;0.83;;;0.83;;
13311;SDS011;34033;48.672;9.376;2023-08-07T01:00:38;0.67;;;0.60;;
13311;SDS011;34033;48.672;9.376;2023-08-07T01:03:06;1.23;;;0.90;;
13311;SDS011;34033;48.672;9.376;2023-08-07T01:05:32;1.13;;;1.00;;
13311;SDS011;34033;48.672;9.376;2023-08-07T01:07:58;0.80;;;0.80;;
13311;SDS011;34033;48.672;9.376;2023-08-07T01:10:35;0.80;;;0.80;;
13311;SDS011;34033;48.672;9.376;2023-08-07T01:13:05;0.77;;;0.77;;
13311;SDS011;34033;48.672;9.376;2023-08-07T01:15:37;0.90;;;0.90;;
13311;SDS011;34033;48.672;9.376;2023-08-07T01:18:04;0.87;;;0.80;;
13311;SDS011;34033;48.672;9.376;2023-08-07T01:20:31;0.70;;;0.60;;
13311;SDS011;34033;48.672;9.376;2023-08-07T01:22:57;1.13;;;0.70;;
13311;SDS011;34033;48.672;9.376;2023-08-07T01:25:22;1.07;;;0.77;;
13311;SDS011;34033;48.672;9.376;2023-08-07T01:27:57;1.10;;;0.70;;
13311;SDS011;34033;48.672;9.376;2023-08-07T01:30:35;0.80;;;0.80;;
13311;SDS011;34033;48.672;9.376;2023-08-07T01:35:49;0.60;;;0.60;;
13311;SDS011;34033;48.672;9.376;2023-08-07T01:38:17;1.90;;;0.90;;
13311;SDS011;34033;48.672;9.376;2023-08-07T01:40:45;0.97;;;0.97;;
13311;SDS011;34033;48.672;9.376;2023-08-07T01:43:12;0.73;;;0.73;;
13311;SDS011;34033;48.672;9.376;2023-08-07T01:45:37;1.13;;;0.90;;
13311;SDS011;34033;48.672;9.376;2023-08-07T01:48:03;1.00;;;0.90;;
13311;SDS011;34033;48.672;9.376;2023-08-07T01:50:28;0.70;;;0.70;;
13311;SDS011;34033;48.672;9.376;2023-08-07T01:52:54;1.03;;;0.73;;
13311;SDS011;34033;48.672;9.376;2023-08-07T01:55:20;1.70;;;0.90;;
13311;SDS011;34033;48.672;9.376;2023-08-07T01:57:46;2.43;;;0.67;;
13311;SDS011;34033;48.672;9.376;2023-08-07T02:00:11;0.93;;;0.77;;
13311;SDS011;34033;48.672;9.376;2023-08-07T02:02:37;1.37;;;0.97;;
13311;SDS011;34033;48.672;9.376;2023-08-07T02:05:03;0.67;;;0.67;;
13311;SDS011;34033;48.672;9.376;2023-08-07T02:07:29;0.80;;;0.77;;
13311;SDS011;34033;48.672;9.376;2023-08-07T02:09:55;1.07;;;0.90;;
13311;SDS011;34033;48.672;9.376;2023-08-07T02:12:20;3.50;;;0.70;;
13311;SDS011;34033;48.672;9.376;2023-08-07T02:14:46;1.90;;;0.67;;
13311;SDS011;34033;48.672;9.376;2023-08-07T02:17:11;1.07;;;0.83;;
13311;SDS011;34033;48.672;9.376;2023-08-07T02:19:36;0.80;;;0.80;;
13311;SDS011;34033;48.672;9.376;2023-08-07T02:22:02;1.20;;;1.10;;
13311;SDS011;34033;48.672;9.376;2023-08-07T02:24:28;1.17;;;0.80;;
13311;SDS011;34033;48.672;9.376;2023-08-07T02:26:53;2.00;;;0.90;;
13311;SDS011;34033;48.672;9.376;2023-08-07T02:29:18;2.23;;;0.90;;
13311;SDS011;34033;48.672;9.376;2023-08-07T02:31:44;0.70;;;0.70;;
13311;SDS011;34033;48.672;9.376;2023-08-07T02:34:09;1.00;;;0.90;;
13311;SDS011;34033;48.672;9.376;2023-08-07T02:36:34;0.70;;;0.70;;
13311;SDS011;34033;48.672;9.376;2023-08-07T02:39:00;2.60;;;0.90;;
13311;SDS011;34033;48.672;9.376;2023-08-07T02:41:25;1.03;;;0.90;;
13311;SDS011;34033;48.672;9.376;2023-08-07T02:43:50;0.60;;;0.60;;
13311;SDS011;34033;48.672;9.376;2023-08-07T02:46:16;0.60;;;0.60;;
13311;SDS011;34033;48.672;9.376;2023-08-07T02:48:43;0.70;;;0.70;;
13311;SDS011;34033;48.672;9.376;2023-08-07T02:51:09;0.80;;;0.80;;
13311;SDS011;34033;48.672;9.376;2023-08-07T02:53:34;0.70;;;0.70;;
13311;SDS011;34033;48.672;9.376;2023-08-07T02:56:00;0.80;;;0.80;;
13311;SDS011;34033;48.672;9.376;2023-08-07T02:58:25;1.73;;;0.97;;
13311;SDS011;34033;48.672;9.376;2023-08-07T03:00:51;0.80;;;0.80;;
13311;SDS011;34033;48.672;9.376;2023-08-07T03:03:16;0.83;;;0.83;;
13311;SDS011;34033;48.672;9.376;2023-08-07T03:05:50;1.13;;;0.77;;
13311;SDS011;34033;48.672;9.376;2023-08-07T03:08:17;0.80;;;0.80;;
13311;SDS011;34033;48.672;9.376;2023-08-07T03:10:43;1.30;;;0.80;;
13311;SDS011;34033;48.672;9.376;2023-08-07T03:13:15;0.77;;;0.77;;
13311;SDS011;34033;48.672;9.376;2023-08-07T03:15:40;4.60;;;0.90;;
13311;SDS011;34033;48.672;9.376;2023-08-07T03:18:05;0.90;;;0.73;;
13311;SDS011;34033;48.672;9.376;2023-08-07T03:20:30;1.90;;;1.00;;
13311;SDS011;34033;48.672;9.376;2023-08-07T03:22:56;0.93;;;0.83;;
13311;SDS011;34033;48.672;9.376;2023-08-07T03:25:21;0.73;;;0.70;;
13311;SDS011;34033;48.672;9.376;2023-08-07T03:27:47;0.70;;;0.70;;
13311;SDS011;34033;48.672;9.376;2023-08-07T03:30:12;1.67;;;1.00;;
13311;SDS011;34033;48.672;9.376;2023-08-07T03:32:38;1.00;;;0.90;;
13311;SDS011;34033;48.672;9.376;2023-08-07T03:35:03;0.73;;;0.73;;
13311;SDS011;34033;48.672;9.376;2023-08-07T03:37:29;1.93;;;1.10;;
13311;SDS011;34033;48.672;9.376;2023-08-07T03:39:54;1.03;;;0.80;;
13311;SDS011;34033;48.672;9.376;2023-08-07T03:42:19;1.30;;;0.77;;
13311;SDS011;34033;48.672;9.376;2023-08-07T03:44:45;0.50;;;0.50;;
13311;SDS011;34033;48.672;9.376;2023-08-07T03:47:10;1.13;;;0.90;;
13311;SDS011;34033;48.672;9.376;2023-08-07T03:49:36;3.33;;;1.20;;
13311;SDS011;34033;48.672;9.376;2023-08-07T03:52:01;5.20;;;1.13;;
13311;SDS011;34033;48.672;9.376;2023-08-07T03:54:26;2.33;;;1.27;;
13311;SDS011;34033;48.672;9.376;2023-08-07T03:56:52;2.37;;;1.47;;
13311;SDS011;34033;48.672;9.376;2023-08-07T03:59:17;1.73;;;1.00;;
13311;SDS011;34033;48.672;9.376;2023-08-07T04:01:42;1.20;;;0.90;;
13311;SDS011;34033;48.672;9.376;2023-08-07T04:04:08;8.17;;;1.70;;
13311;SDS011;34033;48.672;9.376;2023-08-07T04:06:33;2.37;;;1.40;;
13311;SDS011;34033;48.672;9.376;2023-08-07T04:08:59;2.03;;;1.00;;
13311;SDS011;34033;48.672;9.376;2023-08-07T04:11:24;1.73;;;0.90;;
13311;SDS011;34033;48.672;9.376;2023-08-07T04:13:49;1.80;;;0.70;;
13311;SDS011;34033;48.672;9.376;2023-08-07T04:16:15;1.37;;;0.90;;
13311;SDS011;34033;48.672;9.376;2023-08-07T04:18:41;1.40;;;1.13;;
13311;SDS011;34033;48.672;9.376;2023-08-07T04:21:07;1.27;;;0.90;;
13311;SDS011;34033;48.672;9.376;2023-08-07T04:23:33;0.87;;;0.87;;
13311;SDS011;34033;48.672;9.376;2023-08-07T04:25:58;1.27;;;1.17;;
13311;SDS011;34033;48.672;9.376;2023-08-07T04:28:24;0.87;;;0.87;;
13311;SDS011;34033;48.672;9.376;2023-08-07T04:30:49;0.90;;;0.90;;
13311;SDS011;34033;48.672;9.376;2023-08-07T04:33:16;3.13;;;1.10;;
13311;SDS011;34033;48.672;9.376;2023-08-07T04:35:41;2.10;;;0.97;;
13311;SDS011;34033;48.672;9.376;2023-08-07T04:38:06;1.13;;;1.00;;
13311;SDS011;34033;48.672;9.376;2023-08-07T04:40:32;4.33;;;1.00;;
13311;SDS011;34033;48.672;9.376;2023-08-07T04:42:57;1.23;;;0.93;;
13311;SDS011;34033;48.672;9.376;2023-08-07T04:45:22;0.80;;;0.80;;
13311;SDS011;34033;48.672;9.376;2023-08-07T04:47:48;2.80;;;1.00;;
13311;SDS011;34033;48.672;9.376;2023-08-07T04:50:13;1.10;;;0.93;;
13311;SDS011;34033;48.672;9.376;2023-08-07T04:52:39;3.77;;;1.20;;
13311;SDS011;34033;48.672;9.376;2023-08-07T04:55:04;1.47;;;0.90;;
13311;SDS011;34033;48.672;9.376;2023-08-07T04:57:30;4.17;;;1.10;;
13311;SDS011;34033;48.672;9.376;2023-08-07T04:59:55;1.13;;;0.93;;
13311;SDS011;34033;48.672;9.376;2023-08-07T05:02:21;2.17;;;1.10;;
13311;SDS011;34033;48.672;9.376;2023-08-07T05:04:46;0.93;;;0.87;;
13311;SDS011;34033;48.672;9.376;2023-08-07T05:07:11;1.13;;;0.90;;
13311;SDS011;34033;48.672;9.376;2023-08-07T05:09:37;0.80;;;0.80;;
13311;SDS011;34033;48.672;9.376;2023-08-07T05:12:03;0.63;;;0.63;;
13311;SDS011;34033;48.672;9.376;2023-08-07T05:14:29;3.03;;;0.90;;
13311;SDS011;34033;48.672;9.376;2023-08-07T05:16:54;1.23;;;1.00;;
13311;SDS011;34033;48.672;9.376;2023-08-07T05:19:20;2.60;;;0.80;;
13311;SDS011;34033;48.672;9.376;2023-08-07T05:21:45;2.13;;;0.77;;
13311;SDS011;34033;48.672;9.376;2023-08-07T05:24:16;1.30;;;0.70;;
13311;SDS011;34033;48.672;9.376;2023-08-07T05:26:44;1.23;;;1.00;;
13311;SDS011;34033;48.672;9.376;2023-08-07T05:29:09;2.03;;;1.20;;
13311;SDS011;34033;48.672;9.376;2023-08-07T05:31:35;1.23;;;0.93;;
13311;SDS011;34033;48.672;9.376;2023-08-07T05:34:01;0.90;;;0.83;;
13311;SDS011;34033;48.672;9.376;2023-08-07T05:36:26;1.00;;;1.00;;
13311;SDS011;34033;48.672;9.376;2023-08-07T05:38:52;2.30;;;0.90;;
13311;SDS011;34033;48.672;9.376;2023-08-07T05:41:17;0.73;;;0.70;;
13311;SDS011;34033;48.672;9.376;2023-08-07T05:43:42;0.90;;;0.90;;
13311;SDS011;34033;48.672;9.376;2023-08-07T05:46:08;0.97;;;0.90;;
13311;SDS011;34033;48.672;9.376;2023-08-07T05:48:33;1.10;;;0.90;;
13311;SDS011;34033;48.672;9.376;2023-08-07T05:50:59;1.20;;;1.07;;
13311;SDS011;34033;48.672;9.376;2023-08-07T05:53:24;0.93;;;0.93;;
13311;SDS011;34033;48.672;9.376;2023-08-07T05:55:49;0.90;;;0.90;;
13311;SDS011;34033;48.672;9.376;2023-08-07T05:58:15;1.00;;;1.00;;
13311;SDS011;34033;48.672;9.376;2023-08-07T06:00:40;1.03;;;0.90;;
13311;SDS011;34033;48.672;9.376;2023-08-07T06:03:05;1.83;;;0.90;;
13311;SDS011;34033;48.672;9.376;2023-08-07T06:05:31;0.87;;;0.87;;
13311;SDS011;34033;48.672;9.376;2023-08-07T06:07:56;0.87;;;0.87;;
13311;SDS011;34033;48.672;9.376;2023-08-07T06:10:21;0.73;;;0.73;;
13311;SDS011;34033;48.672;9.376;2023-08-07T06:12:47;0.90;;;0.90;;
13311;SDS011;34033;48.672;9.376;2023-08-07T06:15:13;1.00;;;1.00;;
13311;SDS011;34033;48.672;9.376;2023-08-07T06:17:38;1.67;;;1.00;;
13311;SDS011;34033;48.672;9.376;2023-08-07T06:20:05;2.73;;;1.17;;
13311;SDS011;34033;48.672;9.376;2023-08-07T06:22:34;0.90;;;0.90;;
13311;SDS011;34033;48.672;9.376;2023-08-07T06:24:59;0.90;;;0.90;;
13311;SDS011;34033;48.672;9.376;2023-08-07T06:27:25;2.53;;;0.90;;
13311;SDS011;34033;48.672;9.376;2023-08-07T06:29:50;0.80;;;0.80;;
13311;SDS011;34033;48.672;9.376;2023-08-07T06:32:15;2.20;;;1.10;;
13311;SDS011;34033;48.672;9.376;2023-08-07T06:34:42;2.77;;;1.00;;
13311;SDS011;34033;48.672;9.376;2023-08-07T06:37:08;2.33;;;1.10;;
13311;SDS011;34033;48.672;9.376;2023-08-07T06:39:33;5.03;;;0.70;;
13311;SDS011;34033;48.672;9.376;2023-08-07T06:41:58;0.80;;;0.80;;
13311;SDS011;34033;48.672;9.376;2023-08-07T06:44:25;0.83;;;0.83;;
13311;SDS011;34033;48.672;9.376;2023-08-07T06:46:51;2.23;;;0.80;;
13311;SDS011;34033;48.672;9.376;2023-08-07T06:49:17;1.20;;;1.10;;
13311;SDS011;34033;48.672;9.376;2023-08-07T06:51:42;1.03;;;0.80;;
13311;SDS011;34033;48.672;9.376;2023-08-07T06:54:07;1.33;;;1.07;;
13311;SDS011;34033;48.672;9.376;2023-08-07T06:56:33;1.07;;;0.80;;
13311;SDS011;34033;48.672;9.376;2023-08-07T06:58:58;0.80;;;0.80;;
13311;SDS011;34033;48.672;9.376;2023-08-07T07:01:23;1.00;;;0.90;;
13311;SDS011;34033;48.672;9.376;2023-08-07T07:03:49;1.27;;;0.90;;
13311;SDS011;34033;48.672;9.376;2023-08-07T07:06:17;2.00;;;1.13;;
13311;SDS011;34033;48.672;9.376;2023-08-07T07:08:43;2.20;;;0.97;;
13311;SDS011;34033;48.672;9.376;2023-08-07T07:11:08;0.83;;;0.83;;
13311;SDS011;34033;48.672;9.376;2023-08-07T07:13:34;1.00;;;1.00;;
13311;SDS011;34033;48.672;9.376;2023-08-07T07:15:59;0.80;;;0.80;;
13311;SDS011;34033;48.672;9.376;2023-08-07T07:18:24;1.07;;;1.07;;
13311;SDS011;34033;48.672;9.376;2023-08-07T07:20:56;0.87;;;0.87;;
13311;SDS011;34033;48.672;9.376;2023-08-07T07:23:23;0.90;;;0.83;;
13311;SDS011;34033;48.672;9.376;2023-08-07T07:25:49;1.00;;;0.90;;
13311;SDS011;34033;48.672;9.376;2023-08-07T07:28:14;0.93;;;0.87;;
13311;SDS011;34033;48.672;9.376;2023-08-07T07:30:39;0.90;;;0.90;;
13311;SDS011;34033;48.672;9.376;2023-08-07T07:33:05;1.40;;;1.00;;
13311;SDS011;34033;48.672;9.376;2023-08-07T07:35:30;1.30;;;1.20;;
13311;SDS011;34033;48.672;9.376;2023-08-07T07:37:55;0.90;;;0.90;;
13311;SDS011;34033;48.672;9.376;2023-08-07T07:40:21;1.37;;;1.00;;
13311;SDS011;34033;48.672;9.376;2023-08-07T07:42:46;1.30;;;0.80;;
13311;SDS011;34033;48.672;9.376;2023-08-07T07:45:11;1.07;;;1.07;;
13311;SDS011;34033;48.672;9.376;2023-08-07T07:47:37;2.27;;;0.70;;
13311;SDS011;34033;48.672;9.376;2023-08-07T07:50:06;1.00;;;1.00;;
13311;SDS011;34033;48.672;9.376;2023-08-07T07:52:33;1.10;;;0.73;;
13311;SDS011;34033;48.672;9.376;2023-08-07T07:54:59;1.00;;;1.00;;
13311;SDS011;34033;48.672;9.376;2023-08-07T07:57:24;3.07;;;1.10;;
13311;SDS011;34033;48.672;9.376;2023-08-07T07:59:51;1.20;;;1.10;;
13311;SDS011;34033;48.672;9.376;2023-08-07T08:02:16;1.13;;;0.90;;
13311;SDS011;34033;48.672;9.376;2023-08-07T08:04:42;1.17;;;0.97;;
13311;SDS011;34033;48.672;9.376;2023-08-07T08:07:07;1.10;;;1.00;;
13311;SDS011;34033;48.672;9.376;2023-08-07T08:09:33;1.83;;;1.40;;
13311;SDS011;34033;48.672;9.376;2023-08-07T08:11:59;1.00;;;1.00;;
13311;SDS011;34033;48.672;9.376;2023-08-07T08:14:24;0.93;;;0.93;;
13311;SDS011;34033;48.672;9.376;2023-08-07T08:16:49;1.00;;;0.90;;
13311;SDS011;34033;48.672;9.376;2023-08-07T08:19:15;1.23;;;0.90;;
13311;SDS011;34033;48.672;9.376;2023-08-07T08:21:41;0.83;;;0.83;;
13311;SDS011;34033;48.672;9.376;2023-08-07T08:24:07;1.00;;;1.00;;
13311;SDS011;34033;48.672;9.376;2023-08-07T08:26:32;0.70;;;0.70;;
13311;SDS011;34033;48.672;9.376;2023-08-07T08:28:58;0.77;;;0.77;;
13311;SDS011;34033;48.672;9.376;2023-08-07T08:31:23;0.80;;;0.80;;
13311;SDS011;34033;48.672;9.376;2023-08-07T08:33:49;1.43;;;0.90;;
13311;SDS011;34033;48.672;9.376;2023-08-07T08:36:14;2.57;;;0.80;;
13311;SDS011;34033;48.672;9.376;2023-08-07T08:38:40;0.80;;;0.80;;
13311;SDS011;34033;48.672;9.376;2023-08-07T08:41:05;1.10;;;1.00;;
13311;SDS011;34033;48.672;9.376;2023-08-07T08:43:34;0.80;;;0.80;;
13311;SDS011;34033;48.672;9.376;2023-08-07T08:46:03;0.80;;;0.80;;
13311;SDS011;34033;48.672;9.376;2023-08-07T08:48:30;0.70;;;0.70;;
13311;SDS011;34033;48.672;9.376;2023-08-07T08:51:00;1.53;;;1.17;;
13311;SDS011;34033;48.672;9.376;2023-08-07T08:53:26;0.87;;;0.87;;
13311;SDS011;34033;48.672;9.376;2023-08-07T08:55:52;0.83;;;0.83;;
13311;SDS011;34033;48.672;9.376;2023-08-07T08:58:18;0.80;;;0.80;;
13311;SDS011;34033;48.672;9.376;2023-08-07T09:00:45;0.70;;;0.70;;
13311;SDS011;34033;48.672;9.376;2023-08-07T09:03:11;0.73;;;0.73;;
13311;SDS011;34033;48.672;9.376;2023-08-07T09:05:36;0.60;;;0.60;;
13311;SDS011;34033;48.672;9.376;2023-08-07T09:08:02;1.17;;;0.80;;
13311;SDS011;34033;48.672;9.376;2023-08-07T09:10:29;1.20;;;1.00;;
13311;SDS011;34033;48.672;9.376;2023-08-07T09:13:01;0.70;;;0.70;;
13311;SDS011;34033;48.672;9.376;2023-08-07T09:15:33;0.70;;;0.70;;
13311;SDS011;34033;48.672;9.376;2023-08-07T09:18:05;1.97;;;1.00;;
13311;SDS011;34033;48.672;9.376;2023-08-07T09:20:35;0.73;;;0.73;;
13311;SDS011;34033;48.672;9.376;2023-08-07T09:23:04;0.70;;;0.70;;
13311;SDS011;34033;48.672;9.376;2023-08-07T09:25:30;1.23;;;0.80;;
13311;SDS011;34033;48.672;9.376;2023-08-07T09:27:57;0.70;;;0.70;;
13311;SDS011;34033;48.672;9.376;2023-08-07T09:30:26;0.80;;;0.80;;
13311;SDS011;34033;48.672;9.376;2023-08-07T09:32:53;0.70;;;0.70;;
13311;SDS011;34033;48.672;9.376;2023-08-07T09:35:21;0.87;;;0.80;;
13311;SDS011;34033;48.672;9.376;2023-08-07T09:37:48;0.50;;;0.50;;
13311;SDS011;34033;48.672;9.376;2023-08-07T09:40:13;0.73;;;0.73;;
13311;SDS011;34033;48.672;9.376;2023-08-07T09:42:41;0.57;;;0.57;;
13311;SDS011;34033;48.672;9.376;2023-08-07T09:45:25;1.50;;;0.60;;
13311;SDS011;34033;48.672;9.376;2023-08-07T09:47:58;0.70;;;0.70;;
13311;SDS011;34033;48.672;9.376;2023-08-07T09:50:25;0.70;;;0.70;;
13311;SDS011;34033;48.672;9.376;2023-08-07T09:52:52;0.97;;;0.93;;
13311;SDS011;34033;48.672;9.376;2023-08-07T09:55:17;0.70;;;0.70;;
13311;SDS011;34033;48.672;9.376;2023-08-07T09:57:43;0.80;;;0.80;;
13311;SDS011;34033;48.672;9.376;2023-08-07T10:00:09;0.70;;;0.70;;
13311;SDS011;34033;48.672;9.376;2023-08-07T10:02:44;0.70;;;0.70;;
13311;SDS011;34033;48.672;9.376;2023-08-07T10:05:10;0.90;;;0.60;;
13311;SDS011;34033;48.672;9.376;2023-08-07T10:07:39;0.60;;;0.60;;
13311;SDS011;34033;48.672;9.376;2023-08-07T10:10:05;1.33;;;0.90;;
13311;SDS011;34033;48.672;9.376;2023-08-07T10:12:31;0.80;;;0.80;;
13311;SDS011;34033;48.672;9.376;2023-08-07T10:14:58;0.80;;;0.80;;
13311;SDS011;34033;48.672;9.376;2023-08-07T10:17:24;0.70;;;0.70;;
13311;SDS011;34033;48.672;9.376;2023-08-07T10:19:52;0.80;;;0.80;;
13311;SDS011;34033;48.672;9.376;2023-08-07T10:22:20;0.60;;;0.60;;
13311;SDS011;34033;48.672;9.376;2023-08-07T10:24:50;1.23;;;0.83;;
13311;SDS011;34033;48.672;9.376;2023-08-07T10:27:17;0.90;;;0.90;;
13311;SDS011;34033;48.672;9.376;2023-08-07T10:29:45;0.80;;;0.80;;
13311;SDS011;34033;48.672;9.376;2023-08-07T10:32:13;0.70;;;0.70;;
13311;SDS011;34033;48.672;9.376;2023-08-07T10:34:46;0.70;;;0.70;;
13311;SDS011;34033;48.672;9.376;2023-08-07T10:37:55;2.40;;;0.80;;
13311;SDS011;34033;48.672;9.376;2023-08-07T10:40:08;1.33;;;0.90;;
13311;SDS011;34033;48.672;9.376;2023-08-07T10:45:19;0.97;;;0.70;;
13311;SDS011;34033;48.672;9.376;2023-08-07T10:47:57;0.80;;;0.80;;
13311;SDS011;34033;48.672;9.376;2023-08-07T10:50:33;1.33;;;1.20;;
13311;SDS011;34033;48.672;9.376;2023-08-07T10:53:01;0.83;;;0.83;;
13311;SDS011;34033;48.672;9.376;2023-08-07T10:55:30;0.80;;;0.70;;
13311;SDS011;34033;48.672;9.376;2023-08-07T10:57:56;0.90;;;0.60;;
13311;SDS011;34033;48.672;9.376;2023-08-07T11:00:25;1.23;;;0.90;;
13311;SDS011;34033;48.672;9.376;2023-08-07T11:02:52;0.93;;;0.93;;
13311;SDS011;34033;48.672;9.376;2023-08-07T11:05:18;0.93;;;0.93;;
13311;SDS011;34033;48.672;9.376;2023-08-07T11:07:44;1.53;;;0.77;;
13311;SDS011;34033;48.672;9.376;2023-08-07T11:10:12;1.00;;;1.00;;
13311;SDS011;34033;48.672;9.376;2023-08-07T11:12:39;0.90;;;0.90;;
13311;SDS011;34033;48.672;9.376;2023-08-07T11:15:05;2.20;;;1.10;;
13311;SDS011;34033;48.672;9.376;2023-08-07T11:17:31;1.30;;;1.20;;
13311;SDS011;34033;48.672;9.376;2023-08-07T11:19:56;2.17;;;1.00;;
13311;SDS011;34033;48.672;9.376;2023-08-07T11:22:22;1.13;;;1.03;;
13311;SDS011;34033;48.672;9.376;2023-08-07T11:24:48;1.00;;;1.00;;
13311;SDS011;34033;48.672;9.376;2023-08-07T11:27:15;1.10;;;1.00;;
13311;SDS011;34033;48.672;9.376;2023-08-07T11:29:40;0.90;;;0.90;;
13311;SDS011;34033;48.672;9.376;2023-08-07T11:32:06;1.50;;;0.90;;
13311;SDS011;34033;48.672;9.376;2023-08-07T11:34:33;0.80;;;0.80;;
13311;SDS011;34033;48.672;9.376;2023-08-07T11:36:58;0.80;;;0.80;;
13311;SDS011;34033;48.672;9.376;2023-08-07T11:39:25;1.00;;;1.00;;
13311;SDS011;34033;48.672;9.376;2023-08-07T11:41:51;0.80;;;0.80;;
13311;SDS011;34033;48.672;9.376;2023-08-07T11:44:17;0.80;;;0.80;;
13311;SDS011;34033;48.672;9.376;2023-08-07T11:46:43;0.90;;;0.90;;
13311;SDS011;34033;48.672;9.376;2023-08-07T11:49:08;1.83;;;0.80;;
13311;SDS011;34033;48.672;9.376;2023-08-07T11:51:35;1.03;;;0.90;;
13311;SDS011;34033;48.672;9.376;2023-08-07T11:54:00;0.80;;;0.80;;
13311;SDS011;34033;48.672;9.376;2023-08-07T11:56:27;1.07;;;1.07;;
13311;SDS011;34033;48.672;9.376;2023-08-07T11:58:52;0.80;;;0.80;;
13311;SDS011;34033;48.672;9.376;2023-08-07T12:01:19;0.90;;;0.90;;
13311;SDS011;34033;48.672;9.376;2023-08-07T12:06:22;1.27;;;1.00;;
13311;SDS011;34033;48.672;9.376;2023-08-07T12:08:49;0.97;;;0.90;;
13311;SDS011;34033;48.672;9.376;2023-08-07T12:11:18;0.97;;;0.90;;
13311;SDS011;34033;48.672;9.376;2023-08-07T12:13:46;2.13;;;0.93;;
13311;SDS011;34033;48.672;9.376;2023-08-07T12:16:13;1.83;;;1.00;;
13311;SDS011;34033;48.672;9.376;2023-08-07T12:18:45;0.90;;;0.90;;
13311;SDS011;34033;48.672;9.376;2023-08-07T12:21:11;1.17;;;1.03;;
13311;SDS011;34033;48.672;9.376;2023-08-07T12:23:39;2.83;;;1.00;;
13311;SDS011;34033;48.672;9.376;2023-08-07T12:26:04;1.10;;;1.00;;
13311;SDS011;34033;48.672;9.376;2023-08-07T12:28:32;1.00;;;1.00;;
13311;SDS011;34033;48.672;9.376;2023-08-07T12:31:00;1.10;;;1.00;;
13311;SDS011;34033;48.672;9.376;2023-08-07T12:33:25;1.30;;;1.20;;
13311;SDS011;34033;48.672;9.376;2023-08-07T12:35:50;1.67;;;1.40;;
13311;SDS011;34033;48.672;9.376;2023-08-07T12:38:16;2.77;;;1.03;;
13311;SDS011;34033;48.672;9.376;2023-08-07T12:40:42;1.77;;;1.13;;
13311;SDS011;34033;48.672;9.376;2023-08-07T12:43:08;1.13;;;1.10;;
13311;SDS011;34033;48.672;9.376;2023-08-07T12:45:33;0.90;;;0.90;;
13311;SDS011;34033;48.672;9.376;2023-08-07T12:47:59;1.00;;;1.00;;
13311;SDS011;34033;48.672;9.376;2023-08-07T12:50:25;1.80;;;1.00;;
13311;SDS011;34033;48.672;9.376;2023-08-07T12:52:51;1.40;;;1.30;;
13311;SDS011;34033;48.672;9.376;2023-08-07T12:55:17;1.33;;;1.10;;
13311;SDS011;34033;48.672;9.376;2023-08-07T12:57:43;1.03;;;1.00;;
13311;SDS011;34033;48.672;9.376;2023-08-07T13:00:12;1.10;;;1.10;;
13311;SDS011;34033;48.672;9.376;2023-08-07T13:02:43;1.03;;;1.03;;
13311;SDS011;34033;48.672;9.376;2023-08-07T13:05:13;1.23;;;1.10;;
13311;SDS011;34033;48.672;9.376;2023-08-07T13:07:39;2.50;;;1.10;;
13311;SDS011;34033;48.672;9.376;2023-08-07T13:10:06;0.90;;;0.90;;
13311;SDS011;34033;48.672;9.376;2023-08-07T13:12:37;0.90;;;0.90;;
13311;SDS011;34033;48.672;9.376;2023-08-07T13:15:04;1.13;;;1.03;;
13311;SDS011;34033;48.672;9.376;2023-08-07T13:17:30;1.30;;;1.20;;
13311;SDS011;34033;48.672;9.376;2023-08-07T13:19:57;0.83;;;0.83;;
13311;SDS011;34033;48.672;9.376;2023-08-07T13:22:23;1.10;;;1.10;;
13311;SDS011;34033;48.672;9.376;2023-08-07T13:24:48;0.80;;;0.80;;
13311;SDS011;34033;48.672;9.376;2023-08-07T13:27:13;1.37;;;1.23;;
13311;SDS011;34033;48.672;9.376;2023-08-07T13:29:39;0.90;;;0.90;;
13311;SDS011;34033;48.672;9.376;2023-08-07T13:32:04;1.93;;;0.90;;
13311;SDS011;34033;48.672;9.376;2023-08-07T13:34:37;1.40;;;1.30;;
13311;SDS011;34033;48.672;9.376;2023-08-07T13:37:06;0.90;;;0.90;;
13311;SDS011;34033;48.672;9.376;2023-08-07T13:39:32;1.43;;;1.10;;
13311;SDS011;34033;48.672;9.376;2023-08-07T13:41:57;0.70;;;0.70;;
13311;SDS011;34033;48.672;9.376;2023-08-07T13:44:24;0.70;;;0.70;;
13311;SDS011;34033;48.672;9.376;2023-08-07T13:46:50;1.43;;;1.10;;
13311;SDS011;34033;48.672;9.376;2023-08-07T13:49:16;1.00;;;1.00;;
13311;SDS011;34033;48.672;9.376;2023-08-07T13:51:41;5.00;;;1.20;;
13311;SDS011;34033;48.672;9.376;2023-08-07T13:54:07;1.50;;;1.30;;
13311;SDS011;34033;48.672;9.376;2023-08-07T13:56:33;1.23;;;1.13;;
13311;SDS011;34033;48.672;9.376;2023-08-07T13:58:58;0.97;;;0.97;;
13311;SDS011;34033;48.672;9.376;2023-08-07T14:01:25;1.57;;;1.07;;
13311;SDS011;34033;48.672;9.376;2023-08-07T14:03:50;0.90;;;0.90;;
13311;SDS011;34033;48.672;9.376;2023-08-07T14:06:15;1.33;;;1.20;;
13311;SDS011;34033;48.672;9.376;2023-08-07T14:08:41;2.00;;;1.80;;
13311;SDS011;34033;48.672;9.376;2023-08-07T14:11:06;2.30;;;1.33;;
13311;SDS011;34033;48.672;9.376;2023-08-07T14:13:31;1.40;;;1.30;;
13311;SDS011;34033;48.672;9.376;2023-08-07T14:15:57;1.50;;;1.40;;
13311;SDS011;34033;48.672;9.376;2023-08-07T14:18:22;1.50;;;1.30;;
13311;SDS011;34033;48.672;9.376;2023-08-07T14:20:47;1.57;;;1.20;;
13311;SDS011;34033;48.672;9.376;2023-08-07T14:23:13;1.73;;;1.20;;
13311;SDS011;34033;48.672;9.376;2023-08-07T14:25:38;1.43;;;1.03;;
13311;SDS011;34033;48.672;9.376;2023-08-07T14:28:03;2.10;;;1.40;;
13311;SDS011;34033;48.672;9.376;2023-08-07T14:30:31;1.27;;;1.07;;
13311;SDS011;34033;48.672;9.376;2023-08-07T14:32:57;21.57;;;8.00;;
13311;SDS011;34033;48.672;9.376;2023-08-07T14:35:22;13.13;;;4.53;;
13311;SDS011;34033;48.672;9.376;2023-08-07T14:37:47;3.53;;;1.50;;
13311;SDS011;34033;48.672;9.376;2023-08-07T14:40:13;13.40;;;5.17;;
13311;SDS011;34033;48.672;9.376;2023-08-07T14:42:39;31.17;;;11.20;;
13311;SDS011;34033;48.672;9.376;2023-08-07T14:45:04;33.23;;;12.80;;
13311;SDS011;34033;48.672;9.376;2023-08-07T14:47:30;18.37;;;6.53;;
13311;SDS011;34033;48.672;9.376;2023-08-07T14:49:55;2.13;;;1.90;;
13311;SDS011;34033;48.672;9.376;2023-08-07T14:52:21;4.47;;;2.37;;